Time;durP1;ratioP1;P1;durP2;ratioP2;P2;SDS_P1;SDS_P2;PMS_P1;PMS_P2;Temp;Humidity;BMP_temperature;BMP_pressure;BME280_temperature;BME280_humidity;BME280_pressure;Samples;Min_cycle;Max_cycle;Signal;HPM_P1;HPM_P2
2023/03/18 00:01:48;;;;;;;10.25;9.05;;;;;;;13.08;55.47;99640.94;10414047;28;20479;-67
2023/03/18 00:06:50;;;;;;;10.60;8.30;;;;;;;13.08;55.73;99643.59;10397127;28;20063;-69
2023/03/18 00:11:52;;;;;;;9.57;7.68;;;;;;;13.08;55.23;99654.28;10397003;28;20427;-70
2023/03/18 00:16:54;;;;;;;11.05;8.02;;;;;;;13.01;55.30;99655.91;10396515;28;20710;-66
2023/03/18 00:21:56;;;;;;;10.13;7.63;;;;;;;13.03;55.37;99659.28;10412043;28;20097;-70
2023/03/18 00:26:57;;;;;;;9.32;7.03;;;;;;;13.03;55.49;99664.63;10413162;28;20052;-69
2023/03/18 00:31:59;;;;;;;9.38;8.38;;;;;;;13.01;55.52;99676.44;10413879;28;20061;-70
2023/03/18 00:37:02;;;;;;;8.90;7.78;;;;;;;12.98;55.67;99672.22;10412551;28;20052;-68
2023/03/18 00:42:09;;;;;;;9.18;7.28;;;;;;;13.05;55.15;99675.97;10391909;28;20079;-70
2023/03/18 00:47:10;;;;;;;8.82;7.55;;;;;;;13.09;55.53;99681.88;10413062;28;20045;-69
2023/03/18 00:52:12;;;;;;;11.25;9.32;;;;;;;13.11;55.54;99676.38;10412785;28;20069;-67
2023/03/18 00:57:13;;;;;;;10.75;7.68;;;;;;;13.09;55.34;99680.03;10394455;28;20095;-69
2023/03/18 01:02:15;;;;;;;10.65;7.38;;;;;;;13.13;55.59;99687.72;10395507;28;20056;-69
2023/03/18 01:07:18;;;;;;;14.13;8.40;;;;;;;13.10;56.57;99664.81;10411666;28;20052;-70
2023/03/18 01:12:19;;;;;;;9.20;7.82;;;;;;;13.08;57.57;99677.50;10411871;28;20049;-67
2023/03/18 01:17:21;;;;;;;10.45;8.07;;;;;;;13.00;58.06;99678.28;10410527;28;20645;-69
2023/03/18 01:22:23;;;;;;;9.07;8.15;;;;;;;12.98;58.22;99682.91;10399216;28;20053;-70
2023/03/18 01:27:24;;;;;;;9.07;8.20;;;;;;;12.95;58.96;99693.91;10395835;28;20057;-67
2023/03/18 01:32:26;;;;;;;10.23;8.07;;;;;;;12.90;59.87;99685.53;10389346;28;20205;-66
2023/03/18 01:37:27;;;;;;;9.70;7.13;;;;;;;12.86;60.65;99678.81;10410966;28;20126;-69
2023/03/18 01:42:29;;;;;;;8.15;7.38;;;;;;;12.88;61.14;99687.50;10441629;28;20045;-69
2023/03/18 01:47:30;;;;;;;10.23;7.75;;;;;;;12.78;61.76;99679.56;10424258;28;20143;-69
2023/03/18 01:52:32;;;;;;;9.73;8.18;;;;;;;12.87;62.21;99691.19;10396704;28;20048;-68
2023/03/18 01:57:34;;;;;;;9.02;7.85;;;;;;;12.86;63.39;99684.16;10397170;28;20906;-68
2023/03/18 02:02:41;;;;;;;8.75;7.82;;;;;;;12.78;63.66;99676.06;10412841;28;20531;-70
2023/03/18 02:07:43;;;;;;;8.82;7.95;;;;;;;12.69;64.02;99677.81;10393688;28;20132;-68
2023/03/18 02:12:50;;;;;;;9.90;8.18;;;;;;;12.68;64.95;99679.63;10412651;28;20091;-69
2023/03/18 02:18:05;;;;;;;8.63;7.55;;;;;;;12.62;65.17;99677.56;10395057;28;20048;-68
2023/03/18 02:23:11;;;;;;;;;;;;;;;12.58;65.87;99680.69;10394408;28;20130;-68
2023/03/18 02:28:19;;;;;;;8.05;7.25;;;;;;;12.49;66.42;99671.75;10413402;28;20462;-69
2023/03/18 02:33:25;;;;;;;9.52;7.88;;;;;;;12.53;66.56;99681.13;10412600;28;20053;-70
2023/03/18 02:38:26;;;;;;;9.20;7.95;;;;;;;12.46;67.08;99672.03;10394702;28;20067;-69
2023/03/18 02:43:30;;;;;;;10.55;8.85;;;;;;;12.34;68.06;99669.59;10412939;28;20129;-68
2023/03/18 02:48:38;;;;;;;12.15;8.27;;;;;;;12.31;68.80;99680.56;10407267;28;20713;-67
2023/03/18 02:53:40;;;;;;;8.70;7.43;;;;;;;12.22;68.84;99689.47;10397225;28;20742;-69
2023/03/18 02:58:42;;;;;;;8.90;8.00;;;;;;;12.20;69.48;99686.09;10419699;28;20063;-68
2023/03/18 03:03:44;;;;;;;9.63;8.60;;;;;;;12.26;68.94;99701.50;10416732;28;20167;-67
2023/03/18 03:08:45;;;;;;;10.73;8.25;;;;;;;12.18;69.87;99696.91;10398386;28;20052;-70
2023/03/18 03:13:47;;;;;;;9.07;8.13;;;;;;;12.11;70.22;99700.31;10390320;28;20098;-65
2023/03/18 03:18:49;;;;;;;9.55;8.52;;;;;;;12.12;70.16;99696.69;10405664;28;20052;-68
2023/03/18 03:23:51;;;;;;;10.98;7.82;;;;;;;12.12;70.26;99694.00;10397151;28;20058;-70
2023/03/18 03:28:52;;;;;;;8.52;7.72;;;;;;;12.09;70.34;99707.66;10420963;28;20052;-71
2023/03/18 03:33:54;;;;;;;9.27;7.50;;;;;;;12.06;70.79;99702.59;10420881;28;20694;-72
2023/03/18 03:38:55;;;;;;;9.25;7.43;;;;;;;12.16;69.87;99724.72;10394734;28;20080;-70
2023/03/18 03:43:56;;;;;;;8.32;7.53;;;;;;;12.07;71.59;99714.94;10419604;28;20410;-70
2023/03/18 03:48:58;;;;;;;8.25;6.90;;;;;;;12.16;71.77;99724.72;10401381;28;20103;-71
2023/03/18 03:54:00;;;;;;;8.43;7.20;;;;;;;12.07;73.36;99726.47;10419644;28;20123;-67
2023/03/18 03:59:03;;;;;;;8.00;6.50;;;;;;;12.07;73.39;99736.28;10416019;28;20551;-70
2023/03/18 04:04:05;;;;;;;7.15;6.45;;;;;;;12.07;73.08;99739.81;10401768;28;20059;-72
2023/03/18 04:09:06;;;;;;;7.43;6.72;;;;;;;12.00;73.66;99747.53;10417296;28;20056;-71
2023/03/18 04:14:08;;;;;;;8.50;6.70;;;;;;;12.01;73.84;99733.22;10419167;28;20140;-69
2023/03/18 04:19:09;;;;;;;8.07;7.38;;;;;;;11.92;74.17;99726.06;10395671;28;20056;-68
2023/03/18 04:24:11;;;;;;;8.98;8.07;;;;;;;11.95;74.62;99723.13;10400383;28;20114;-70
2023/03/18 04:29:13;;;;;;;7.75;6.95;;;;;;;11.85;74.83;99716.94;10418605;28;20770;-71
2023/03/18 04:34:14;;;;;;;9.70;7.32;;;;;;;11.88;75.19;99732.66;10413184;28;20574;-71
2023/03/18 04:39:15;;;;;;;12.63;7.40;;;;;;;11.82;75.35;99731.41;10411203;28;20199;-71
2023/03/18 04:44:18;;;;;;;8.20;7.40;;;;;;;11.71;75.75;99728.06;10411486;28;20098;-71
2023/03/18 04:49:19;;;;;;;7.47;6.72;;;;;;;11.60;75.69;99713.91;10392506;28;20049;-70
2023/03/18 04:54:21;;;;;;;8.93;7.30;;;;;;;11.62;76.22;99717.28;10390791;28;20858;-70
2023/03/18 04:59:23;;;;;;;9.38;7.55;;;;;;;11.65;76.12;99735.66;10428623;28;20049;-70
2023/03/18 05:04:24;;;;;;;7.97;7.28;;;;;;;11.64;76.55;99739.31;10423027;28;20107;-70
2023/03/18 05:09:26;;;;;;;8.00;6.93;;;;;;;11.59;76.50;99741.56;10393187;28;20156;-70
2023/03/18 05:14:27;;;;;;;9.00;7.68;;;;;;;11.65;76.65;99742.81;10395715;28;20730;-70
2023/03/18 05:19:29;;;;;;;10.25;7.28;;;;;;;11.70;76.16;99742.41;10388686;28;20077;-71
2023/03/18 05:24:30;;;;;;;8.82;6.90;;;;;;;11.74;75.66;99751.78;10376168;28;20088;-68
2023/03/18 05:29:32;;;;;;;10.23;7.63;;;;;;;11.79;75.52;99746.88;10405483;28;20065;-70
2023/03/18 05:34:36;;;;;;;8.05;7.38;;;;;;;11.77;76.15;99744.34;10408554;28;20053;-72
2023/03/18 05:39:38;;;;;;;9.10;6.88;;;;;;;11.80;76.01;99744.06;10414015;28;20051;-73
2023/03/18 05:44:41;;;;;;;8.93;7.82;;;;;;;11.81;76.50;99742.22;10431087;28;20091;-73
2023/03/18 05:49:42;;;;;;;7.10;6.50;;;;;;;11.80;75.87;99759.19;10417272;28;20080;-71
2023/03/18 05:54:44;;;;;;;9.07;7.53;;;;;;;11.79;76.27;99752.19;10435154;28;20083;-72
2023/03/18 05:59:45;;;;;;;9.50;7.90;;;;;;;11.80;76.05;99761.84;10434797;28;20051;-71
2023/03/18 06:04:47;;;;;;;9.57;7.82;;;;;;;11.73;76.35;99760.78;10408554;28;20397;-70
2023/03/18 06:09:48;;;;;;;8.73;7.82;;;;;;;11.77;76.97;99767.47;10407916;28;20501;-72
2023/03/18 06:14:51;;;;;;;10.07;8.25;;;;;;;11.79;77.08;99776.19;10393219;28;20056;-68
2023/03/18 06:19:53;;;;;;;10.18;8.18;;;;;;;11.76;77.49;99773.81;10396191;28;20146;-70
2023/03/18 06:24:55;;;;;;;8.02;7.28;;;;;;;11.79;77.92;99771.69;10378867;28;20076;-66
2023/03/18 06:29:56;;;;;;;9.68;8.50;;;;;;;11.85;77.24;99776.44;10416886;28;20052;-70
2023/03/18 06:34:58;;;;;;;9.30;8.00;;;;;;;11.88;77.24;99786.00;10390142;28;20618;-69
2023/03/18 06:40:00;;;;;;;9.05;8.18;;;;;;;11.90;76.96;99784.00;10404335;28;20085;-69
2023/03/18 06:45:02;;;;;;;10.82;8.75;;;;;;;11.91;76.61;99780.38;10370965;28;20423;-70
2023/03/18 06:50:04;;;;;;;9.77;8.30;;;;;;;11.94;76.50;99780.13;10388665;28;20069;-69
2023/03/18 06:55:06;;;;;;;9.43;8.52;;;;;;;11.95;75.80;99795.16;10388146;28;20053;-69
2023/03/18 07:00:09;;;;;;;12.55;8.73;;;;;;;11.90;75.46;99784.00;10370239;28;20122;-70
2023/03/18 07:05:11;;;;;;;14.00;10.25;;;;;;;11.77;75.59;99789.66;10354648;28;20068;-70
2023/03/18 07:10:21;;;;;;;11.43;9.35;;;;;;;11.78;75.89;99793.16;10374791;28;20053;-70
2023/03/18 07:15:23;;;;;;;10.32;9.13;;;;;;;11.78;75.92;99787.84;10359064;28;20060;-71
2023/03/18 07:20:24;;;;;;;9.68;8.63;;;;;;;11.67;75.55;99781.66;10375676;28;20084;-71
2023/03/18 07:25:26;;;;;;;11.18;8.93;;;;;;;11.93;74.82;99802.44;10413634;28;20068;-71
2023/03/18 07:30:27;;;;;;;8.95;8.10;;;;;;;12.15;72.25;99806.59;10418299;28;20053;-71
2023/03/18 07:35:29;;;;;;;11.10;8.95;;;;;;;12.39;70.59;99805.25;10411166;28;20925;-71
2023/03/18 07:40:31;;;;;;;9.75;8.80;;;;;;;12.54;69.21;99805.63;10396059;28;21254;-69
2023/03/18 07:45:33;;;;;;;9.00;7.68;;;;;;;12.76;66.70;99811.56;10394335;28;20061;-71
2023/03/18 07:50:35;;;;;;;9.10;7.57;;;;;;;12.97;64.44;99809.50;10378733;28;20156;-71
2023/03/18 07:55:37;;;;;;;9.13;7.93;;;;;;;13.08;62.77;99814.59;10354663;28;20828;-70
2023/03/18 08:00:39;;;;;;;8.77;6.55;;;;;;;12.88;61.70;99819.25;10377315;28;20143;-68
2023/03/18 08:05:40;;;;;;;9.55;7.40;;;;;;;12.80;61.51;99824.47;10373485;28;20376;-69
2023/03/18 08:10:42;;;;;;;6.90;6.13;;;;;;;12.86;61.03;99813.19;10361086;28;20077;-69
2023/03/18 08:15:43;;;;;;;9.52;6.70;;;;;;;13.18;60.53;99822.56;10378581;28;20049;-69
2023/03/18 08:20:45;;;;;;;10.77;6.70;;;;;;;13.38;60.00;99822.47;10377012;28;20053;-71
2023/03/18 08:25:50;;;;;;;9.15;6.95;;;;;;;13.59;59.56;99825.66;10368166;28;20136;-72
2023/03/18 08:30:54;;;;;;;7.95;7.03;;;;;;;13.83;59.56;99836.75;10368406;28;20057;-70
2023/03/18 08:35:56;;;;;;;7.10;6.50;;;;;;;13.99;58.47;99826.16;10360258;28;20152;-69
2023/03/18 08:40:58;;;;;;;9.43;6.82;;;;;;;14.28;58.32;99825.03;10344079;28;20057;-70
2023/03/18 08:46:00;;;;;;;6.68;5.97;;;;;;;14.59;57.25;99829.84;10357698;28;20138;-72
2023/03/18 08:51:04;;;;;;;7.68;6.07;;;;;;;14.87;56.53;99832.38;10351402;28;20459;-69
2023/03/18 08:56:06;;;;;;;5.95;4.40;;;;;;;15.08;52.74;99811.31;10357951;28;20065;-71
2023/03/18 09:01:08;;;;;;;4.10;3.20;;;;;;;15.31;50.19;99822.28;10356156;28;20136;-70
2023/03/18 09:06:12;;;;;;;4.22;3.25;;;;;;;15.29;49.30;99816.22;10338295;28;20099;-72
2023/03/18 09:11:13;;;;;;;3.08;2.72;;;;;;;15.67;50.33;99827.34;10331280;28;20164;-71
2023/03/18 09:16:16;;;;;;;5.40;3.90;;;;;;;15.92;47.50;99834.59;10340981;28;20049;-70
2023/03/18 09:21:18;;;;;;;5.70;3.53;;;;;;;16.18;47.62;99832.56;10379471;28;20111;-68
2023/03/18 09:26:19;;;;;;;6.78;4.97;;;;;;;16.52;46.73;99836.81;10374186;28;20160;-69
2023/03/18 09:31:21;;;;;;;3.47;2.80;;;;;;;16.94;46.02;99819.56;10367630;28;20063;-69
2023/03/18 09:36:22;;;;;;;5.55;3.40;;;;;;;17.19;45.17;99826.66;10352257;28;20145;-71
2023/03/18 09:41:51;;;;;;;4.03;2.85;;;;;;;17.59;45.22;99817.47;10370908;28;20056;-70
2023/03/18 09:47:22;;;;;;;5.68;3.20;;;;;;;18.12;43.39;99833.72;10358128;28;20411;-69
2023/03/18 09:52:26;;;;;;;4.38;3.10;;;;;;;18.08;43.89;99831.59;10361834;28;20064;-70
2023/03/18 09:57:37;;;;;;;5.32;3.33;;;;;;;18.30;43.07;99830.69;10379290;28;20095;-70
2023/03/18 10:02:44;;;;;;;4.35;3.20;;;;;;;18.62;43.63;99823.25;10381101;28;20144;-70
2023/03/18 10:07:51;;;;;;;4.70;2.90;;;;;;;19.33;40.10;99828.09;10351762;28;20063;-71
2023/03/18 10:13:11;;;;;;;3.90;2.78;;;;;;;20.13;39.20;99822.59;10355807;28;20132;-70
2023/03/18 10:18:33;;;;;;;6.07;2.88;;;;;;;22.00;35.13;99822.50;10379616;28;20573;-72
2023/03/18 10:24:04;;;;;;;2.75;2.35;;;;;;;24.53;31.89;99819.53;10377797;28;20048;-72
2023/03/18 10:29:26;;;;;;;3.78;2.13;;;;;;;25.98;29.91;99813.41;10374455;28;20045;-71
2023/03/18 10:34:52;;;;;;;3.55;2.28;;;;;;;25.50;30.07;99804.31;10381617;28;20462;-74
2023/03/18 10:39:54;;;;;;;4.03;3.03;;;;;;;23.99;31.69;99806.47;10375087;28;20149;-71
2023/03/18 10:45:13;;;;;;;4.97;2.20;;;;;;;23.15;33.66;99805.78;10371205;28;20142;-69
2023/03/18 10:50:17;;;;;;;4.40;2.00;;;;;;;24.13;32.33;99804.44;10378565;28;20056;-70
2023/03/18 10:55:24;;;;;;;7.38;2.28;;;;;;;27.76;27.44;99811.06;10365772;28;20098;-71
2023/03/18 11:00:31;;;;;;;5.82;3.20;;;;;;;27.92;26.55;99801.22;10356647;28;20057;-72
2023/03/18 11:05:36;;;;;;;4.32;2.45;;;;;;;30.54;23.80;99795.84;10372384;28;20061;-72
2023/03/18 11:10:44;;;;;;;3.58;1.30;;;;;;;32.50;21.78;99793.31;10368996;28;20140;-71
2023/03/18 11:15:50;;;;;;;2.28;1.23;;;;;;;33.78;20.22;99787.09;10368414;28;20053;-72
2023/03/18 11:21:03;;;;;;;2.65;1.23;;;;;;;34.15;19.10;99791.13;10373572;28;20053;-71
2023/03/18 11:26:07;;;;;;;3.58;1.40;;;;;;;34.67;19.67;99790.59;10371667;28;20049;-72
2023/03/18 11:31:16;;;;;;;3.08;1.05;;;;;;;35.56;17.24;99789.91;10359929;28;20048;-70
2023/03/18 11:36:22;;;;;;;2.40;0.80;;;;;;;35.71;18.49;99779.69;10376926;28;20597;-68
2023/03/18 11:41:27;;;;;;;0.95;0.80;;;;;;;35.89;17.76;99769.72;10381560;28;20056;-71
2023/03/18 11:46:44;;;;;;;3.40;0.95;;;;;;;31.67;20.71;99785.16;10384366;28;20057;-69
2023/03/18 11:52:05;;;;;;;2.80;0.95;;;;;;;30.42;21.89;99776.03;10388492;28;20186;-71
2023/03/18 11:57:22;;;;;;;3.10;1.00;;;;;;;31.01;21.92;99777.63;10384844;28;20226;-70
2023/03/18 12:03:02;;;;;;;3.55;1.10;;;;;;;27.50;26.26;99766.91;10371620;28;20049;-72
2023/03/18 12:08:30;;;;;;;3.08;1.08;;;;;;;25.61;28.29;99772.69;10376911;28;20045;-71
2023/03/18 12:13:51;;;;;;;1.95;1.00;;;;;;;23.97;30.00;99764.22;10386306;28;20049;-70
2023/03/18 12:19:30;;;;;;;2.75;0.80;;;;;;;23.79;31.71;99765.00;10387050;28;20551;-68
2023/03/18 12:24:55;;;;;;;3.00;1.10;;;;;;;23.77;31.43;99738.03;10364057;28;20080;-74
2023/03/18 12:30:18;;;;;;;2.42;0.98;;;;;;;25.26;28.50;99743.47;10362360;28;20110;-73
2023/03/18 12:35:38;;;;;;;3.78;1.33;;;;;;;25.35;28.30;99742.09;10376828;28;20049;-73
2023/03/18 12:40:58;;;;;;;1.50;0.80;;;;;;;30.10;22.88;99736.56;10371290;28;20281;-74
2023/03/18 12:46:24;;;;;;;4.45;1.13;;;;;;;33.86;18.96;99737.91;10375961;28;20049;-71
2023/03/18 12:51:41;;;;;;;3.45;0.93;;;;;;;36.18;16.81;99730.69;10359087;28;20049;-72
2023/03/18 12:56:49;;;;;;;2.72;1.35;;;;;;;35.62;17.68;99721.44;10362551;28;20406;-70
2023/03/18 13:02:05;;;;;;;3.72;1.15;;;;;;;31.84;20.67;99723.53;10371594;28;20965;-69
2023/03/18 13:07:20;;;;;;;2.60;0.88;;;;;;;29.72;23.02;99722.00;10365625;28;20106;-70
2023/03/18 13:12:29;;;;;;;2.08;0.77;;;;;;;30.15;22.28;99719.31;10369076;28;20698;-72
2023/03/18 13:17:35;;;;;;;2.70;1.02;;;;;;;29.36;23.60;99709.94;10370072;28;20056;-71
2023/03/18 13:22:42;;;;;;;3.90;1.30;;;;;;;28.16;24.59;99708.88;10374411;28;20112;-70
2023/03/18 13:27:56;;;;;;;2.28;1.15;;;;;;;26.48;27.25;99719.34;10371531;28;20090;-72
2023/03/18 13:33:29;;;;;;;4.88;1.50;;;;;;;25.46;28.41;99715.94;10377315;28;20054;-70
2023/03/18 13:38:40;;;;;;;;;;;;;;;24.89;29.46;99714.44;10377687;28;20605;-72
2023/03/18 13:43:48;;;;;;;3.72;1.10;;;;;;;24.62;29.79;99703.94;10354822;28;19941;-71
2023/03/18 13:48:55;;;;;;;1.85;1.10;;;;;;;25.44;28.74;99699.00;10375369;28;20075;-71
2023/03/18 13:54:00;;;;;;;3.05;1.20;;;;;;;25.05;29.07;99693.91;10376776;28;20143;-71
2023/03/18 13:59:27;;;;;;;3.47;1.30;;;;;;;24.13;31.09;99689.44;10363048;28;20147;-68
2023/03/18 14:04:31;;;;;;;2.83;0.90;;;;;;;23.56;31.72;99687.66;10368108;28;20498;-72
2023/03/18 14:09:34;;;;;;;4.00;1.27;;;;;;;23.06;32.26;99698.44;10353445;28;20147;-71
2023/03/18 14:14:55;;;;;;;2.42;1.00;;;;;;;23.43;32.41;99698.63;10376146;28;20075;-71
2023/03/18 14:20:04;;;;;;;3.92;1.20;;;;;;;22.97;32.70;99695.19;10379496;28;20055;-70
2023/03/18 14:25:38;;;;;;;1.63;0.95;;;;;;;22.62;33.61;99686.63;10364375;28;21088;-70
2023/03/18 14:31:04;;;;;;;3.10;1.30;;;;;;;22.57;33.79;99685.38;10369495;28;20100;-72
2023/03/18 14:36:09;;;;;;;3.63;0.90;;;;;;;22.86;33.29;99679.59;10355873;28;20044;-71
2023/03/18 14:41:16;;;;;;;3.10;1.33;;;;;;;23.22;32.44;99684.38;10373022;28;20041;-71
2023/03/18 14:46:23;;;;;;;3.33;1.67;;;;;;;23.08;32.48;99664.63;10373708;28;20183;-70
2023/03/18 14:51:27;;;;;;;2.63;1.52;;;;;;;22.83;32.94;99672.72;10376558;28;20707;-70
2023/03/18 14:56:35;;;;;;;3.58;1.40;;;;;;;22.48;33.44;99667.69;10358190;28;20246;-68
2023/03/18 15:01:43;;;;;;;3.70;1.63;;;;;;;22.02;33.64;99671.38;10378096;28;20053;-71
2023/03/18 15:06:45;;;;;;;3.63;1.23;;;;;;;21.77;34.72;99669.34;10380500;28;20820;-71
2023/03/18 15:11:46;;;;;;;2.65;1.35;;;;;;;21.43;35.76;99668.53;10360903;28;20087;-72
2023/03/18 15:16:51;;;;;;;3.33;1.35;;;;;;;21.39;35.75;99661.84;10374210;28;20076;-71
2023/03/18 15:21:53;;;;;;;2.10;1.40;;;;;;;21.34;36.13;99661.66;10377980;28;20611;-70
2023/03/18 15:26:57;;;;;;;2.23;1.40;;;;;;;21.05;36.36;99655.63;10374667;28;20088;-70
2023/03/18 15:32:14;;;;;;;3.05;1.50;;;;;;;20.51;37.53;99654.63;10371357;28;20390;-70
2023/03/18 15:37:40;;;;;;;2.90;1.42;;;;;;;20.62;37.19;99655.91;10357554;28;20195;-69
2023/03/18 15:42:43;;;;;;;3.78;1.70;;;;;;;20.46;37.80;99652.53;10373775;28;20531;-69
2023/03/18 15:47:46;;;;;;;6.15;1.55;;;;;;;20.11;38.69;99660.69;10375097;28;20045;-69
2023/03/18 15:52:47;;;;;;;4.38;1.73;;;;;;;19.99;39.05;99656.91;10378042;28;20601;-70
2023/03/18 15:57:52;;;;;;;2.70;1.20;;;;;;;19.59;40.20;99657.47;10359550;28;20152;-70
2023/03/18 16:02:54;;;;;;;2.78;1.40;;;;;;;19.52;40.26;99655.75;10357501;28;20136;-68
2023/03/18 16:07:55;;;;;;;3.88;1.52;;;;;;;19.51;40.36;99654.91;10374494;28;20048;-70
2023/03/18 16:13:00;;;;;;;2.92;1.33;;;;;;;19.41;40.68;99652.56;10366254;28;20728;-69
2023/03/18 16:18:02;;;;;;;3.38;1.77;;;;;;;19.24;41.06;99659.25;10391765;28;20079;-71
2023/03/18 16:23:04;;;;;;;3.10;1.75;;;;;;;19.12;41.56;99656.25;10402446;28;20053;-71
2023/03/18 16:28:06;;;;;;;4.93;2.13;;;;;;;19.17;41.96;99655.66;10379703;28;20076;-67
2023/03/18 16:33:12;;;;;;;5.82;1.95;;;;;;;19.17;42.14;99653.81;10372559;28;20077;-67
2023/03/18 16:38:16;;;;;;;6.85;4.00;;;;;;;19.10;41.87;99650.22;10399022;28;20101;-70
2023/03/18 16:43:21;;;;;;;;;;;;;;;18.98;41.68;99663.38;10396541;28;20677;-69
2023/03/18 16:48:25;;;;;;;4.25;2.95;;;;;;;18.77;42.30;99663.38;10381551;28;19960;-71
2023/03/18 16:53:28;;;;;;;3.20;2.15;;;;;;;18.83;42.04;99659.91;10386781;28;20875;-71
2023/03/18 16:58:34;;;;;;;3.15;2.30;;;;;;;18.84;41.99;99672.34;10389762;28;20048;-72
2023/03/18 17:03:36;;;;;;;6.13;3.13;;;;;;;18.80;42.35;99662.97;10392594;28;20128;-71
2023/03/18 17:08:38;;;;;;;3.75;2.05;;;;;;;18.63;41.90;99662.34;10390538;28;20049;-71
2023/03/18 17:13:40;;;;;;;3.30;1.73;;;;;;;18.42;42.45;99671.25;10378054;28;20076;-71
2023/03/18 17:18:41;;;;;;;5.45;1.90;;;;;;;18.11;44.12;99685.78;10383214;28;20157;-71
2023/03/18 17:23:43;;;;;;;5.88;2.10;;;;;;;17.92;45.15;99698.75;10393270;28;20064;-71
2023/03/18 17:28:47;;;;;;;3.63;2.30;;;;;;;17.90;45.62;99705.38;10388414;28;20048;-69
2023/03/18 17:33:49;;;;;;;7.30;4.70;;;;;;;17.79;45.66;99699.38;10369632;28;20086;-69
2023/03/18 17:38:55;;;;;;;5.28;3.05;;;;;;;17.79;46.38;99702.09;10387712;28;20113;-70
2023/03/18 17:43:57;;;;;;;4.03;2.88;;;;;;;17.73;46.17;99700.13;10385425;28;20120;-68
2023/03/18 17:48:58;;;;;;;6.43;3.25;;;;;;;17.64;47.28;99703.94;10381546;28;20053;-69
2023/03/18 17:54:01;;;;;;;4.57;3.25;;;;;;;17.56;47.43;99710.19;10388057;28;20045;-69
2023/03/18 17:59:09;;;;;;;5.78;3.17;;;;;;;17.48;47.45;99715.66;10384349;28;20061;-72
2023/03/18 18:04:15;;;;;;;7.50;3.53;;;;;;;17.40;48.47;99716.56;10381132;28;20056;-68
2023/03/18 18:09:18;;;;;;;6.15;3.80;;;;;;;17.29;48.32;99707.09;10383043;28;20095;-70
2023/03/18 18:14:23;;;;;;;9.63;4.85;;;;;;;17.27;48.70;99717.16;10383649;28;20107;-70
2023/03/18 18:19:25;;;;;;;9.00;5.15;;;;;;;17.21;48.70;99719.75;10383777;28;20049;-73
2023/03/18 18:24:30;;;;;;;8.02;4.57;;;;;;;17.09;49.54;99719.34;10384044;28;21056;-70
2023/03/18 18:29:31;;;;;;;7.72;5.95;;;;;;;16.96;49.68;99717.22;10384390;28;20099;-71
2023/03/18 18:34:35;;;;;;;16.70;5.28;;;;;;;16.85;49.60;99709.56;10383934;28;20140;-70
2023/03/18 18:39:36;;;;;;;6.55;4.65;;;;;;;16.81;50.02;99718.97;10380740;28;20049;-69
2023/03/18 18:44:38;;;;;;;7.60;4.78;;;;;;;16.75;49.66;99720.50;10384443;28;20049;-68
2023/03/18 18:49:39;;;;;;;7.97;4.20;;;;;;;16.69;50.19;99710.47;10383005;28;20092;-68
2023/03/18 18:54:41;;;;;;;7.40;4.45;;;;;;;16.66;50.08;99713.50;10384945;28;20534;-71
2023/03/18 18:59:45;;;;;;;11.55;6.03;;;;;;;16.60;50.86;99712.38;10378519;28;20052;-70
2023/03/18 19:04:46;;;;;;;9.38;5.68;;;;;;;16.54;50.59;99713.06;10375787;28;20056;-71
2023/03/18 19:09:48;;;;;;;8.55;6.35;;;;;;;16.46;51.35;99716.63;10379194;28;20513;-71
2023/03/18 19:14:49;;;;;;;9.45;6.97;;;;;;;16.42;51.37;99718.00;10384244;28;20139;-70
2023/03/18 19:19:51;;;;;;;8.55;6.10;;;;;;;16.31;51.88;99715.69;10381985;28;20150;-69
2023/03/18 19:24:53;;;;;;;8.02;6.78;;;;;;;16.27;52.41;99728.63;10381231;28;20087;-70
2023/03/18 19:29:57;;;;;;;9.27;7.45;;;;;;;16.22;52.25;99728.31;10363336;28;21140;-73
2023/03/18 19:34:59;;;;;;;12.68;7.97;;;;;;;16.09;52.22;99728.84;10380401;28;20063;-69
2023/03/18 19:40:19;;;;;;;10.48;7.40;;;;;;;16.05;52.55;99738.28;10387249;28;20060;-70
2023/03/18 19:45:20;;;;;;;10.07;7.95;;;;;;;15.98;53.26;99745.34;10387115;28;20041;-69
2023/03/18 19:50:22;;;;;;;9.23;7.35;;;;;;;15.85;52.97;99738.66;10410930;28;20064;-72
2023/03/18 19:55:24;;;;;;;11.40;9.02;;;;;;;15.76;53.77;99747.66;10440437;28;20037;-71
2023/03/18 20:00:25;;;;;;;8.15;7.35;;;;;;;15.71;53.67;99747.34;10380418;28;20053;-72
2023/03/18 20:05:27;;;;;;;9.23;8.20;;;;;;;15.64;53.96;99747.19;10393109;28;20052;-71
2023/03/18 20:10:28;;;;;;;10.48;7.43;;;;;;;15.59;54.45;99759.44;10394535;28;20055;-70
2023/03/18 20:15:30;;;;;;;10.27;7.55;;;;;;;15.51;54.84;99762.97;10373475;28;20049;-70
2023/03/18 20:20:33;;;;;;;9.55;8.25;;;;;;;15.42;54.55;99758.56;10373453;28;20644;-69
2023/03/18 20:25:39;;;;;;;13.18;7.80;;;;;;;15.32;55.62;99758.75;10390916;28;20193;-68
2023/03/18 20:30:42;;;;;;;9.85;8.00;;;;;;;15.32;55.54;99770.31;10399315;28;20040;-70
2023/03/18 20:35:46;;;;;;;11.98;9.00;;;;;;;15.34;55.64;99772.81;10399502;28;20045;-70
2023/03/18 20:40:48;;;;;;;10.18;9.10;;;;;;;15.29;55.90;99761.78;10418995;28;20049;-70
2023/03/18 20:45:50;;;;;;;10.98;8.70;;;;;;;15.34;56.60;99770.13;10408132;28;20098;-68
2023/03/18 20:50:54;;;;;;;11.05;8.02;;;;;;;15.32;56.09;99774.84;10415422;28;20053;-68
2023/03/18 20:55:56;;;;;;;9.68;8.77;;;;;;;15.27;56.75;99783.38;10392137;28;20758;-69
2023/03/18 21:00:57;;;;;;;10.27;9.07;;;;;;;15.25;56.70;99779.19;10412021;28;20045;-70
2023/03/18 21:06:02;;;;;;;11.13;8.65;;;;;;;15.23;57.11;99784.72;10405356;28;20052;-71
2023/03/18 21:11:04;;;;;;;9.90;7.95;;;;;;;15.09;57.06;99771.97;10408205;28;20126;-69
2023/03/18 21:16:11;;;;;;;14.20;9.32;;;;;;;15.15;57.16;99782.84;10408917;28;20051;-68
2023/03/18 21:21:22;;;;;;;11.15;9.27;;;;;;;15.13;57.51;99787.56;10410487;28;20049;-71
2023/03/18 21:26:24;;;;;;;11.07;9.75;;;;;;;15.11;57.46;99778.81;10391941;28;20060;-67
2023/03/18 21:31:30;;;;;;;12.18;10.65;;;;;;;15.11;57.94;99784.19;10392492;28;20079;-67
2023/03/18 21:36:31;;;;;;;13.07;10.10;;;;;;;15.06;57.55;99781.16;10403357;28;20060;-68
2023/03/18 21:41:33;;;;;;;10.77;9.23;;;;;;;15.04;58.12;99780.47;10409118;28;20183;-68
2023/03/18 21:46:35;;;;;;;12.55;10.30;;;;;;;15.02;57.85;99777.97;10403759;28;20041;-68
2023/03/18 21:51:36;;;;;;;14.52;11.07;;;;;;;14.98;58.36;99778.47;10383580;28;20050;-70
2023/03/18 21:56:40;;;;;;;12.05;10.07;;;;;;;15.04;57.71;99777.78;10399452;28;20072;-67
2023/03/18 22:01:41;;;;;;;11.52;10.35;;;;;;;15.03;57.91;99776.13;10386734;28;20734;-69
2023/03/18 22:06:43;;;;;;;13.02;11.57;;;;;;;15.04;58.17;99777.78;10409719;28;20053;-71
2023/03/18 22:11:44;;;;;;;11.88;10.35;;;;;;;15.00;58.49;99771.13;10389569;28;20049;-69
2023/03/18 22:16:46;;;;;;;11.48;9.50;;;;;;;14.98;58.09;99767.75;10410943;28;21389;-70
2023/03/18 22:21:47;;;;;;;9.35;8.32;;;;;;;14.96;58.03;99759.03;10393477;28;20045;-69
2023/03/18 22:26:48;;;;;;;13.18;8.57;;;;;;;14.95;57.81;99768.06;10406338;28;20041;-68
2023/03/18 22:31:50;;;;;;;9.57;8.63;;;;;;;14.95;58.27;99773.44;10405474;28;20049;-71
2023/03/18 22:36:52;;;;;;;11.45;9.40;;;;;;;14.83;58.42;99760.34;10400131;28;20045;-69
2023/03/18 22:41:53;;;;;;;12.73;9.23;;;;;;;14.89;58.38;99768.72;10409794;28;20057;-68
2023/03/18 22:46:54;;;;;;;11.23;9.40;;;;;;;14.85;58.63;99771.72;10400020;28;20774;-68
2023/03/18 22:51:56;;;;;;;12.25;10.27;;;;;;;14.75;58.89;99783.59;10388548;28;20115;-71
2023/03/18 22:56:58;;;;;;;12.63;9.57;;;;;;;14.65;59.45;99784.56;10385547;28;20044;-70
2023/03/18 23:01:59;;;;;;;10.13;9.02;;;;;;;14.65;59.70;99797.09;10401841;28;20083;-70
2023/03/18 23:07:01;;;;;;;11.43;10.07;;;;;;;14.63;59.44;99796.44;10401928;28;20045;-70
2023/03/18 23:12:02;;;;;;;10.65;9.30;;;;;;;14.55;59.73;99788.34;10400747;28;20081;-70
2023/03/18 23:17:04;;;;;;;10.25;8.77;;;;;;;14.57;59.91;99802.41;10423678;28;20067;-70
2023/03/18 23:22:06;;;;;;;10.63;9.23;;;;;;;14.60;59.99;99810.13;10462732;28;20041;-68
2023/03/18 23:27:07;;;;;;;14.40;10.68;;;;;;;14.54;60.26;99810.75;10412791;28;20099;-69
2023/03/18 23:32:10;;;;;;;11.18;9.68;;;;;;;14.54;60.08;99810.75;10410103;28;20379;-70
2023/03/18 23:37:12;;;;;;;12.50;9.43;;;;;;;14.54;60.07;99805.41;10407456;28;20539;-68